sensor_id;sensor_type;location;lat;lon;timestamp;temperature;humidity
14733;DHT22;7457;50.960;6.830;2022-12-07T00:02:04;4.40;100.00
14733;DHT22;7457;50.960;6.830;2022-12-07T00:04:30;4.40;100.00
14733;DHT22;7457;50.960;6.830;2022-12-07T00:06:56;4.40;100.00
14733;DHT22;7457;50.960;6.830;2022-12-07T00:09:21;4.40;100.00
14733;DHT22;7457;50.960;6.830;2022-12-07T00:11:51;4.40;100.00
14733;DHT22;7457;50.960;6.830;2022-12-07T00:14:17;4.40;100.00
14733;DHT22;7457;50.960;6.830;2022-12-07T00:16:43;4.40;100.00
14733;DHT22;7457;50.960;6.830;2022-12-07T00:19:11;4.40;100.00
14733;DHT22;7457;50.960;6.830;2022-12-07T00:21:37;4.40;100.00
14733;DHT22;7457;50.960;6.830;2022-12-07T00:24:04;4.30;100.00
14733;DHT22;7457;50.960;6.830;2022-12-07T00:26:37;4.30;100.00
14733;DHT22;7457;50.960;6.830;2022-12-07T00:29:06;4.20;100.00
14733;DHT22;7457;50.960;6.830;2022-12-07T00:31:36;4.20;100.00
14733;DHT22;7457;50.960;6.830;2022-12-07T00:34:05;4.20;100.00
14733;DHT22;7457;50.960;6.830;2022-12-07T00:36:31;4.20;100.00
14733;DHT22;7457;50.960;6.830;2022-12-07T00:38:58;4.20;100.00
14733;DHT22;7457;50.960;6.830;2022-12-07T00:41:25;4.20;100.00
14733;DHT22;7457;50.960;6.830;2022-12-07T00:43:51;4.20;100.00
14733;DHT22;7457;50.960;6.830;2022-12-07T00:46:18;4.20;100.00
14733;DHT22;7457;50.960;6.830;2022-12-07T00:48:44;4.20;100.00
14733;DHT22;7457;50.960;6.830;2022-12-07T00:51:14;4.30;100.00
14733;DHT22;7457;50.960;6.830;2022-12-07T00:53:40;4.30;100.00
14733;DHT22;7457;50.960;6.830;2022-12-07T00:56:11;4.30;100.00
14733;DHT22;7457;50.960;6.830;2022-12-07T00:58:37;4.40;100.00
14733;DHT22;7457;50.960;6.830;2022-12-07T01:01:04;4.40;100.00
14733;DHT22;7457;50.960;6.830;2022-12-07T01:03:30;4.40;100.00
14733;DHT22;7457;50.960;6.830;2022-12-07T01:05:56;4.40;100.00
14733;DHT22;7457;50.960;6.830;2022-12-07T01:08:23;4.50;100.00
14733;DHT22;7457;50.960;6.830;2022-12-07T01:10:49;4.50;100.00
14733;DHT22;7457;50.960;6.830;2022-12-07T01:13:22;4.50;100.00
14733;DHT22;7457;50.960;6.830;2022-12-07T01:15:47;4.50;100.00
14733;DHT22;7457;50.960;6.830;2022-12-07T01:18:13;4.50;100.00
14733;DHT22;7457;50.960;6.830;2022-12-07T01:20:39;4.50;100.00
14733;DHT22;7457;50.960;6.830;2022-12-07T01:23:04;4.50;100.00
14733;DHT22;7457;50.960;6.830;2022-12-07T01:25:31;4.50;100.00
14733;DHT22;7457;50.960;6.830;2022-12-07T01:27:56;4.50;100.00
14733;DHT22;7457;50.960;6.830;2022-12-07T01:30:22;4.50;100.00
14733;DHT22;7457;50.960;6.830;2022-12-07T01:32:48;4.50;100.00
14733;DHT22;7457;50.960;6.830;2022-12-07T01:35:13;4.50;100.00
14733;DHT22;7457;50.960;6.830;2022-12-07T01:37:39;4.50;100.00
14733;DHT22;7457;50.960;6.830;2022-12-07T01:40:07;4.50;100.00
14733;DHT22;7457;50.960;6.830;2022-12-07T01:42:33;4.50;100.00
14733;DHT22;7457;50.960;6.830;2022-12-07T01:47:55;4.50;100.00
14733;DHT22;7457;50.960;6.830;2022-12-07T01:50:25;4.50;100.00
14733;DHT22;7457;50.960;6.830;2022-12-07T01:52:53;4.50;100.00
14733;DHT22;7457;50.960;6.830;2022-12-07T01:55:20;4.50;100.00
14733;DHT22;7457;50.960;6.830;2022-12-07T01:57:49;4.50;100.00
14733;DHT22;7457;50.960;6.830;2022-12-07T02:00:16;4.50;100.00
14733;DHT22;7457;50.960;6.830;2022-12-07T02:03:00;4.40;100.00
14733;DHT22;7457;50.960;6.830;2022-12-07T02:05:27;4.40;100.00
14733;DHT22;7457;50.960;6.830;2022-12-07T02:07:55;4.40;100.00
14733;DHT22;7457;50.960;6.830;2022-12-07T02:10:26;4.40;100.00
14733;DHT22;7457;50.960;6.830;2022-12-07T02:13:06;4.40;100.00
14733;DHT22;7457;50.960;6.830;2022-12-07T02:15:41;4.40;100.00
14733;DHT22;7457;50.960;6.830;2022-12-07T02:19:19;4.40;100.00
14733;DHT22;7457;50.960;6.830;2022-12-07T02:24:19;4.30;100.00
14733;DHT22;7457;50.960;6.830;2022-12-07T02:29:40;4.30;100.00
14733;DHT22;7457;50.960;6.830;2022-12-07T02:32:22;4.30;100.00
14733;DHT22;7457;50.960;6.830;2022-12-07T02:35:30;4.30;100.00
14733;DHT22;7457;50.960;6.830;2022-12-07T02:43:28;4.40;100.00
14733;DHT22;7457;50.960;6.830;2022-12-07T02:45:59;4.40;100.00
14733;DHT22;7457;50.960;6.830;2022-12-07T02:48:27;4.30;100.00
14733;DHT22;7457;50.960;6.830;2022-12-07T02:50:54;4.30;100.00
14733;DHT22;7457;50.960;6.830;2022-12-07T02:53:39;4.30;100.00
14733;DHT22;7457;50.960;6.830;2022-12-07T03:04:14;4.30;100.00
14733;DHT22;7457;50.960;6.830;2022-12-07T03:06:51;4.20;100.00
14733;DHT22;7457;50.960;6.830;2022-12-07T03:09:36;4.20;100.00
14733;DHT22;7457;50.960;6.830;2022-12-07T03:12:08;4.20;100.00
14733;DHT22;7457;50.960;6.830;2022-12-07T03:14:40;4.20;100.00
14733;DHT22;7457;50.960;6.830;2022-12-07T03:17:18;4.20;100.00
14733;DHT22;7457;50.960;6.830;2022-12-07T03:19:45;4.20;100.00
14733;DHT22;7457;50.960;6.830;2022-12-07T03:22:12;4.20;100.00
14733;DHT22;7457;50.960;6.830;2022-12-07T03:25:06;4.20;100.00
14733;DHT22;7457;50.960;6.830;2022-12-07T03:27:41;4.20;100.00
14733;DHT22;7457;50.960;6.830;2022-12-07T03:33:27;4.30;100.00
14733;DHT22;7457;50.960;6.830;2022-12-07T03:36:08;4.30;100.00
14733;DHT22;7457;50.960;6.830;2022-12-07T03:38:48;4.30;100.00
14733;DHT22;7457;50.960;6.830;2022-12-07T03:41:20;4.30;100.00
14733;DHT22;7457;50.960;6.830;2022-12-07T03:43:47;4.40;100.00
14733;DHT22;7457;50.960;6.830;2022-12-07T03:49:28;4.40;100.00
14733;DHT22;7457;50.960;6.830;2022-12-07T03:52:16;4.40;100.00
14733;DHT22;7457;50.960;6.830;2022-12-07T03:54:57;4.40;100.00
14733;DHT22;7457;50.960;6.830;2022-12-07T03:57:26;4.40;100.00
14733;DHT22;7457;50.960;6.830;2022-12-07T03:59:54;4.40;100.00
14733;DHT22;7457;50.960;6.830;2022-12-07T04:02:21;4.40;100.00
14733;DHT22;7457;50.960;6.830;2022-12-07T04:04:47;4.40;100.00
14733;DHT22;7457;50.960;6.830;2022-12-07T04:07:13;4.40;100.00
14733;DHT22;7457;50.960;6.830;2022-12-07T04:09:39;4.40;100.00
14733;DHT22;7457;50.960;6.830;2022-12-07T04:12:05;4.40;100.00
14733;DHT22;7457;50.960;6.830;2022-12-07T04:14:30;4.40;100.00
14733;DHT22;7457;50.960;6.830;2022-12-07T04:16:57;4.40;100.00
14733;DHT22;7457;50.960;6.830;2022-12-07T04:19:26;4.40;100.00
14733;DHT22;7457;50.960;6.830;2022-12-07T04:21:52;4.40;100.00
14733;DHT22;7457;50.960;6.830;2022-12-07T04:24:17;4.40;100.00
14733;DHT22;7457;50.960;6.830;2022-12-07T04:26:45;4.40;100.00
14733;DHT22;7457;50.960;6.830;2022-12-07T04:29:11;4.30;100.00
14733;DHT22;7457;50.960;6.830;2022-12-07T04:31:37;4.30;100.00
14733;DHT22;7457;50.960;6.830;2022-12-07T04:34:03;4.30;100.00
14733;DHT22;7457;50.960;6.830;2022-12-07T04:36:29;4.20;100.00
14733;DHT22;7457;50.960;6.830;2022-12-07T04:38:55;4.10;100.00
14733;DHT22;7457;50.960;6.830;2022-12-07T04:41:23;4.10;100.00
14733;DHT22;7457;50.960;6.830;2022-12-07T04:44:03;4.10;100.00
14733;DHT22;7457;50.960;6.830;2022-12-07T04:46:30;4.00;100.00
14733;DHT22;7457;50.960;6.830;2022-12-07T04:48:57;4.00;100.00
14733;DHT22;7457;50.960;6.830;2022-12-07T04:51:25;4.00;100.00
14733;DHT22;7457;50.960;6.830;2022-12-07T04:53:51;4.00;100.00
14733;DHT22;7457;50.960;6.830;2022-12-07T04:56:17;4.00;100.00
14733;DHT22;7457;50.960;6.830;2022-12-07T04:58:45;4.00;100.00
14733;DHT22;7457;50.960;6.830;2022-12-07T05:01:12;4.00;100.00
14733;DHT22;7457;50.960;6.830;2022-12-07T05:03:38;4.00;100.00
14733;DHT22;7457;50.960;6.830;2022-12-07T05:06:04;3.90;100.00
14733;DHT22;7457;50.960;6.830;2022-12-07T05:08:29;3.90;100.00
14733;DHT22;7457;50.960;6.830;2022-12-07T05:10:55;3.90;100.00
14733;DHT22;7457;50.960;6.830;2022-12-07T05:13:21;3.90;100.00
14733;DHT22;7457;50.960;6.830;2022-12-07T05:15:47;3.90;100.00
14733;DHT22;7457;50.960;6.830;2022-12-07T05:18:13;3.90;100.00
14733;DHT22;7457;50.960;6.830;2022-12-07T05:20:40;3.90;100.00
14733;DHT22;7457;50.960;6.830;2022-12-07T05:23:06;3.90;100.00
14733;DHT22;7457;50.960;6.830;2022-12-07T05:25:31;4.00;100.00
14733;DHT22;7457;50.960;6.830;2022-12-07T05:27:57;4.00;100.00
14733;DHT22;7457;50.960;6.830;2022-12-07T05:30:24;4.00;100.00
14733;DHT22;7457;50.960;6.830;2022-12-07T05:32:50;4.00;100.00
14733;DHT22;7457;50.960;6.830;2022-12-07T05:35:17;4.00;100.00
14733;DHT22;7457;50.960;6.830;2022-12-07T05:37:43;4.00;100.00
14733;DHT22;7457;50.960;6.830;2022-12-07T05:40:09;4.10;100.00
14733;DHT22;7457;50.960;6.830;2022-12-07T05:42:35;4.10;100.00
14733;DHT22;7457;50.960;6.830;2022-12-07T05:45:01;4.10;100.00
14733;DHT22;7457;50.960;6.830;2022-12-07T05:47:26;4.10;100.00
14733;DHT22;7457;50.960;6.830;2022-12-07T05:49:52;4.20;100.00
14733;DHT22;7457;50.960;6.830;2022-12-07T05:52:18;4.20;100.00
14733;DHT22;7457;50.960;6.830;2022-12-07T05:54:43;4.20;100.00
14733;DHT22;7457;50.960;6.830;2022-12-07T05:57:09;4.20;100.00
14733;DHT22;7457;50.960;6.830;2022-12-07T05:59:34;4.20;100.00
14733;DHT22;7457;50.960;6.830;2022-12-07T06:02:03;4.10;100.00
14733;DHT22;7457;50.960;6.830;2022-12-07T06:04:32;4.10;100.00
14733;DHT22;7457;50.960;6.830;2022-12-07T06:06:58;4.00;100.00
14733;DHT22;7457;50.960;6.830;2022-12-07T06:09:25;4.00;100.00
14733;DHT22;7457;50.960;6.830;2022-12-07T06:11:51;3.90;100.00
14733;DHT22;7457;50.960;6.830;2022-12-07T06:14:35;3.80;100.00
14733;DHT22;7457;50.960;6.830;2022-12-07T06:17:01;3.80;100.00
14733;DHT22;7457;50.960;6.830;2022-12-07T06:19:27;3.70;100.00
14733;DHT22;7457;50.960;6.830;2022-12-07T06:21:52;3.60;100.00
14733;DHT22;7457;50.960;6.830;2022-12-07T06:24:18;3.60;100.00
14733;DHT22;7457;50.960;6.830;2022-12-07T06:26:44;3.50;100.00
14733;DHT22;7457;50.960;6.830;2022-12-07T06:29:11;3.50;100.00
14733;DHT22;7457;50.960;6.830;2022-12-07T06:31:37;3.50;100.00
14733;DHT22;7457;50.960;6.830;2022-12-07T06:34:06;3.50;100.00
14733;DHT22;7457;50.960;6.830;2022-12-07T06:36:32;3.50;100.00
14733;DHT22;7457;50.960;6.830;2022-12-07T06:38:58;3.50;100.00
14733;DHT22;7457;50.960;6.830;2022-12-07T06:41:24;3.50;100.00
14733;DHT22;7457;50.960;6.830;2022-12-07T06:43:50;3.60;100.00
14733;DHT22;7457;50.960;6.830;2022-12-07T06:46:16;3.60;100.00
14733;DHT22;7457;50.960;6.830;2022-12-07T06:48:42;3.60;100.00
14733;DHT22;7457;50.960;6.830;2022-12-07T06:51:09;3.60;100.00
14733;DHT22;7457;50.960;6.830;2022-12-07T06:53:35;3.60;100.00
14733;DHT22;7457;50.960;6.830;2022-12-07T06:56:01;3.60;100.00
14733;DHT22;7457;50.960;6.830;2022-12-07T06:58:27;3.60;100.00
14733;DHT22;7457;50.960;6.830;2022-12-07T07:00:53;3.60;100.00
14733;DHT22;7457;50.960;6.830;2022-12-07T07:03:18;3.60;100.00
14733;DHT22;7457;50.960;6.830;2022-12-07T07:05:44;3.60;100.00
14733;DHT22;7457;50.960;6.830;2022-12-07T07:08:11;3.70;100.00
14733;DHT22;7457;50.960;6.830;2022-12-07T07:10:37;3.60;100.00
14733;DHT22;7457;50.960;6.830;2022-12-07T07:13:04;3.70;100.00
14733;DHT22;7457;50.960;6.830;2022-12-07T07:15:30;3.70;100.00
14733;DHT22;7457;50.960;6.830;2022-12-07T07:17:55;3.70;100.00
14733;DHT22;7457;50.960;6.830;2022-12-07T07:20:21;3.80;100.00
14733;DHT22;7457;50.960;6.830;2022-12-07T07:22:47;3.80;100.00
14733;DHT22;7457;50.960;6.830;2022-12-07T07:25:13;3.80;100.00
14733;DHT22;7457;50.960;6.830;2022-12-07T07:27:39;3.80;100.00
14733;DHT22;7457;50.960;6.830;2022-12-07T07:30:05;3.80;100.00
14733;DHT22;7457;50.960;6.830;2022-12-07T07:32:31;3.80;100.00
14733;DHT22;7457;50.960;6.830;2022-12-07T07:34:56;3.80;100.00
14733;DHT22;7457;50.960;6.830;2022-12-07T07:37:22;3.80;100.00
14733;DHT22;7457;50.960;6.830;2022-12-07T07:39:48;3.70;100.00
14733;DHT22;7457;50.960;6.830;2022-12-07T07:42:14;3.70;100.00
14733;DHT22;7457;50.960;6.830;2022-12-07T07:44:39;3.70;100.00
14733;DHT22;7457;50.960;6.830;2022-12-07T07:47:05;3.70;100.00
14733;DHT22;7457;50.960;6.830;2022-12-07T07:49:30;3.70;100.00
14733;DHT22;7457;50.960;6.830;2022-12-07T07:51:56;3.70;100.00
14733;DHT22;7457;50.960;6.830;2022-12-07T07:54:21;3.70;100.00
14733;DHT22;7457;50.960;6.830;2022-12-07T07:56:47;3.70;100.00
14733;DHT22;7457;50.960;6.830;2022-12-07T07:59:14;3.80;100.00
14733;DHT22;7457;50.960;6.830;2022-12-07T08:01:40;3.80;100.00
14733;DHT22;7457;50.960;6.830;2022-12-07T08:04:05;3.80;100.00
14733;DHT22;7457;50.960;6.830;2022-12-07T08:06:31;3.80;100.00
14733;DHT22;7457;50.960;6.830;2022-12-07T08:08:56;3.80;100.00
14733;DHT22;7457;50.960;6.830;2022-12-07T08:11:23;3.80;100.00
14733;DHT22;7457;50.960;6.830;2022-12-07T08:13:49;3.80;100.00
14733;DHT22;7457;50.960;6.830;2022-12-07T08:16:15;3.90;100.00
14733;DHT22;7457;50.960;6.830;2022-12-07T08:18:41;3.90;100.00
14733;DHT22;7457;50.960;6.830;2022-12-07T08:21:09;3.90;100.00
14733;DHT22;7457;50.960;6.830;2022-12-07T08:23:35;4.00;100.00
14733;DHT22;7457;50.960;6.830;2022-12-07T08:26:03;4.00;100.00
14733;DHT22;7457;50.960;6.830;2022-12-07T08:28:29;4.10;100.00
14733;DHT22;7457;50.960;6.830;2022-12-07T08:31:02;4.10;100.00
14733;DHT22;7457;50.960;6.830;2022-12-07T08:33:28;4.20;100.00
14733;DHT22;7457;50.960;6.830;2022-12-07T08:35:53;4.20;100.00
14733;DHT22;7457;50.960;6.830;2022-12-07T08:38:19;4.20;100.00
14733;DHT22;7457;50.960;6.830;2022-12-07T08:40:52;4.30;100.00
14733;DHT22;7457;50.960;6.830;2022-12-07T08:43:18;4.40;100.00
14733;DHT22;7457;50.960;6.830;2022-12-07T08:45:44;4.50;100.00
14733;DHT22;7457;50.960;6.830;2022-12-07T08:48:12;4.60;100.00
14733;DHT22;7457;50.960;6.830;2022-12-07T08:50:38;4.60;100.00
14733;DHT22;7457;50.960;6.830;2022-12-07T08:53:05;4.60;100.00
14733;DHT22;7457;50.960;6.830;2022-12-07T08:55:33;4.70;100.00
14733;DHT22;7457;50.960;6.830;2022-12-07T08:57:59;4.80;100.00
14733;DHT22;7457;50.960;6.830;2022-12-07T09:00:26;4.80;100.00
14733;DHT22;7457;50.960;6.830;2022-12-07T09:02:52;4.90;100.00
14733;DHT22;7457;50.960;6.830;2022-12-07T09:05:18;5.00;100.00
14733;DHT22;7457;50.960;6.830;2022-12-07T09:07:46;5.10;100.00
14733;DHT22;7457;50.960;6.830;2022-12-07T09:10:14;5.30;100.00
14733;DHT22;7457;50.960;6.830;2022-12-07T09:12:40;5.40;100.00
14733;DHT22;7457;50.960;6.830;2022-12-07T09:15:06;5.70;100.00
14733;DHT22;7457;50.960;6.830;2022-12-07T09:17:33;5.90;100.00
14733;DHT22;7457;50.960;6.830;2022-12-07T09:19:59;5.90;100.00
14733;DHT22;7457;50.960;6.830;2022-12-07T09:22:31;5.90;100.00
14733;DHT22;7457;50.960;6.830;2022-12-07T09:24:58;5.80;100.00
14733;DHT22;7457;50.960;6.830;2022-12-07T09:27:24;5.70;100.00
14733;DHT22;7457;50.960;6.830;2022-12-07T09:29:50;5.70;100.00
14733;DHT22;7457;50.960;6.830;2022-12-07T09:32:15;5.70;100.00
14733;DHT22;7457;50.960;6.830;2022-12-07T09:34:41;5.70;100.00
14733;DHT22;7457;50.960;6.830;2022-12-07T09:37:07;5.60;100.00
14733;DHT22;7457;50.960;6.830;2022-12-07T09:39:33;5.60;100.00
14733;DHT22;7457;50.960;6.830;2022-12-07T09:41:59;5.60;100.00
14733;DHT22;7457;50.960;6.830;2022-12-07T09:44:28;5.60;100.00
14733;DHT22;7457;50.960;6.830;2022-12-07T09:46:54;5.60;100.00
14733;DHT22;7457;50.960;6.830;2022-12-07T09:49:24;5.60;100.00
14733;DHT22;7457;50.960;6.830;2022-12-07T09:54:36;5.60;100.00
14733;DHT22;7457;50.960;6.830;2022-12-07T09:57:08;5.60;100.00
14733;DHT22;7457;50.960;6.830;2022-12-07T09:59:34;5.70;100.00
14733;DHT22;7457;50.960;6.830;2022-12-07T10:02:23;5.70;100.00
14733;DHT22;7457;50.960;6.830;2022-12-07T10:04:49;5.80;100.00
14733;DHT22;7457;50.960;6.830;2022-12-07T10:07:14;5.80;100.00
14733;DHT22;7457;50.960;6.830;2022-12-07T10:09:40;5.80;100.00
14733;DHT22;7457;50.960;6.830;2022-12-07T10:12:08;5.80;100.00
14733;DHT22;7457;50.960;6.830;2022-12-07T10:14:56;5.80;100.00
14733;DHT22;7457;50.960;6.830;2022-12-07T10:17:40;5.90;100.00
14733;DHT22;7457;50.960;6.830;2022-12-07T10:25:21;5.80;100.00
14733;DHT22;7457;50.960;6.830;2022-12-07T10:28:11;5.80;100.00
14733;DHT22;7457;50.960;6.830;2022-12-07T10:30:53;5.80;100.00
14733;DHT22;7457;50.960;6.830;2022-12-07T10:33:46;5.80;100.00
14733;DHT22;7457;50.960;6.830;2022-12-07T10:38:59;5.90;100.00
14733;DHT22;7457;50.960;6.830;2022-12-07T10:41:25;5.90;100.00
14733;DHT22;7457;50.960;6.830;2022-12-07T10:43:53;6.10;100.00
14733;DHT22;7457;50.960;6.830;2022-12-07T10:46:51;6.20;100.00
14733;DHT22;7457;50.960;6.830;2022-12-07T10:52:18;6.40;100.00
14733;DHT22;7457;50.960;6.830;2022-12-07T10:55:11;6.40;99.80
14733;DHT22;7457;50.960;6.830;2022-12-07T11:00:25;6.30;99.00
14733;DHT22;7457;50.960;6.830;2022-12-07T11:02:58;6.30;98.40
14733;DHT22;7457;50.960;6.830;2022-12-07T11:08:47;6.20;98.90
14733;DHT22;7457;50.960;6.830;2022-12-07T11:11:44;6.20;99.00
14733;DHT22;7457;50.960;6.830;2022-12-07T11:17:18;6.20;98.70
14733;DHT22;7457;50.960;6.830;2022-12-07T11:31:22;6.20;97.90
14733;DHT22;7457;50.960;6.830;2022-12-07T11:34:15;6.20;97.80
14733;DHT22;7457;50.960;6.830;2022-12-07T11:36:47;6.20;97.80
14733;DHT22;7457;50.960;6.830;2022-12-07T11:42:00;6.10;98.10
14733;DHT22;7457;50.960;6.830;2022-12-07T11:44:40;6.10;97.90
14733;DHT22;7457;50.960;6.830;2022-12-07T12:03:35;5.80;97.50
14733;DHT22;7457;50.960;6.830;2022-12-07T12:06:03;5.80;97.80
14733;DHT22;7457;50.960;6.830;2022-12-07T12:08:36;5.80;98.00
14733;DHT22;7457;50.960;6.830;2022-12-07T12:21:48;6.20;100.00
14733;DHT22;7457;50.960;6.830;2022-12-07T12:24:22;6.40;98.40
14733;DHT22;7457;50.960;6.830;2022-12-07T12:26:52;6.50;97.70
14733;DHT22;7457;50.960;6.830;2022-12-07T12:29:28;6.50;96.80
14733;DHT22;7457;50.960;6.830;2022-12-07T12:32:39;6.40;96.50
14733;DHT22;7457;50.960;6.830;2022-12-07T12:35:21;6.40;96.20
14733;DHT22;7457;50.960;6.830;2022-12-07T12:37:48;6.30;96.50
14733;DHT22;7457;50.960;6.830;2022-12-07T12:42:48;6.10;96.40
14733;DHT22;7457;50.960;6.830;2022-12-07T12:45:32;6.10;96.20
14733;DHT22;7457;50.960;6.830;2022-12-07T12:48:01;6.00;96.00
14733;DHT22;7457;50.960;6.830;2022-12-07T12:50:33;6.00;96.10
14733;DHT22;7457;50.960;6.830;2022-12-07T12:55:49;5.90;96.20
14733;DHT22;7457;50.960;6.830;2022-12-07T13:01:33;5.80;96.30
14733;DHT22;7457;50.960;6.830;2022-12-07T13:03:32;5.80;96.40
14733;DHT22;7457;50.960;6.830;2022-12-07T13:06:19;5.80;96.40
14733;DHT22;7457;50.960;6.830;2022-12-07T13:08:58;5.80;96.50
14733;DHT22;7457;50.960;6.830;2022-12-07T13:11:36;5.80;96.80
14733;DHT22;7457;50.960;6.830;2022-12-07T13:17:11;5.80;96.70
14733;DHT22;7457;50.960;6.830;2022-12-07T13:25:17;5.80;96.50
14733;DHT22;7457;50.960;6.830;2022-12-07T13:28:00;5.80;96.60
14733;DHT22;7457;50.960;6.830;2022-12-07T13:30:27;5.80;96.50
14733;DHT22;7457;50.960;6.830;2022-12-07T13:32:55;5.80;96.50
14733;DHT22;7457;50.960;6.830;2022-12-07T13:35:34;5.80;96.40
14733;DHT22;7457;50.960;6.830;2022-12-07T13:38:13;5.80;96.20
14733;DHT22;7457;50.960;6.830;2022-12-07T13:40:41;5.80;96.30
14733;DHT22;7457;50.960;6.830;2022-12-07T13:43:14;5.80;96.40
14733;DHT22;7457;50.960;6.830;2022-12-07T13:45:41;5.80;96.40
14733;DHT22;7457;50.960;6.830;2022-12-07T13:48:28;5.80;96.50
14733;DHT22;7457;50.960;6.830;2022-12-07T13:50:57;5.80;96.40
14733;DHT22;7457;50.960;6.830;2022-12-07T13:53:24;5.80;96.40
14733;DHT22;7457;50.960;6.830;2022-12-07T13:55:50;5.80;96.30
14733;DHT22;7457;50.960;6.830;2022-12-07T13:58:16;5.80;96.30
14733;DHT22;7457;50.960;6.830;2022-12-07T14:00:42;5.80;96.40
14733;DHT22;7457;50.960;6.830;2022-12-07T14:05:41;5.80;96.10
14733;DHT22;7457;50.960;6.830;2022-12-07T14:13:39;5.70;96.00
14733;DHT22;7457;50.960;6.830;2022-12-07T14:18:43;5.70;95.90
14733;DHT22;7457;50.960;6.830;2022-12-07T14:23:35;5.70;95.70
14733;DHT22;7457;50.960;6.830;2022-12-07T14:26:12;5.70;95.80
14733;DHT22;7457;50.960;6.830;2022-12-07T14:28:39;5.60;95.80
14733;DHT22;7457;50.960;6.830;2022-12-07T14:31:12;5.60;95.70
14733;DHT22;7457;50.960;6.830;2022-12-07T14:33:38;5.70;95.80
14733;DHT22;7457;50.960;6.830;2022-12-07T14:36:04;5.70;95.80
14733;DHT22;7457;50.960;6.830;2022-12-07T14:38:30;5.60;95.70
14733;DHT22;7457;50.960;6.830;2022-12-07T14:40:56;5.70;95.70
14733;DHT22;7457;50.960;6.830;2022-12-07T14:43:44;5.60;95.70
14733;DHT22;7457;50.960;6.830;2022-12-07T14:46:10;5.60;95.80
14733;DHT22;7457;50.960;6.830;2022-12-07T14:48:36;5.60;95.70
14733;DHT22;7457;50.960;6.830;2022-12-07T14:51:02;5.60;95.60
14733;DHT22;7457;50.960;6.830;2022-12-07T14:53:36;5.60;95.60
14733;DHT22;7457;50.960;6.830;2022-12-07T14:56:04;5.50;95.60
14733;DHT22;7457;50.960;6.830;2022-12-07T14:58:31;5.50;95.70
14733;DHT22;7457;50.960;6.830;2022-12-07T15:00:58;5.50;95.70
14733;DHT22;7457;50.960;6.830;2022-12-07T15:03:23;5.50;95.60
14733;DHT22;7457;50.960;6.830;2022-12-07T15:05:49;5.40;95.70
14733;DHT22;7457;50.960;6.830;2022-12-07T15:08:14;5.40;95.80
14733;DHT22;7457;50.960;6.830;2022-12-07T15:10:40;5.40;95.80
14733;DHT22;7457;50.960;6.830;2022-12-07T15:13:06;5.40;95.90
14733;DHT22;7457;50.960;6.830;2022-12-07T15:15:53;5.30;95.90
14733;DHT22;7457;50.960;6.830;2022-12-07T15:18:19;5.30;95.90
14733;DHT22;7457;50.960;6.830;2022-12-07T15:20:46;5.30;96.10
14733;DHT22;7457;50.960;6.830;2022-12-07T15:23:12;5.20;96.00
14733;DHT22;7457;50.960;6.830;2022-12-07T15:25:42;5.20;96.00
14733;DHT22;7457;50.960;6.830;2022-12-07T15:28:09;5.10;96.00
14733;DHT22;7457;50.960;6.830;2022-12-07T15:30:36;5.10;96.10
14733;DHT22;7457;50.960;6.830;2022-12-07T15:33:01;5.10;96.10
14733;DHT22;7457;50.960;6.830;2022-12-07T15:35:27;5.00;96.20
14733;DHT22;7457;50.960;6.830;2022-12-07T15:37:53;5.00;96.40
14733;DHT22;7457;50.960;6.830;2022-12-07T15:40:18;5.00;96.50
14733;DHT22;7457;50.960;6.830;2022-12-07T15:42:44;5.00;96.70
14733;DHT22;7457;50.960;6.830;2022-12-07T15:45:10;5.00;96.80
14733;DHT22;7457;50.960;6.830;2022-12-07T15:47:39;5.00;96.70
14733;DHT22;7457;50.960;6.830;2022-12-07T15:50:06;4.90;96.90
14733;DHT22;7457;50.960;6.830;2022-12-07T15:52:32;4.90;96.80
14733;DHT22;7457;50.960;6.830;2022-12-07T15:54:58;4.80;96.70
14733;DHT22;7457;50.960;6.830;2022-12-07T15:57:26;4.80;96.80
14733;DHT22;7457;50.960;6.830;2022-12-07T15:59:52;4.80;96.70
14733;DHT22;7457;50.960;6.830;2022-12-07T16:02:17;4.70;96.70
14733;DHT22;7457;50.960;6.830;2022-12-07T16:04:43;4.60;96.60
14733;DHT22;7457;50.960;6.830;2022-12-07T16:07:08;4.50;96.60
14733;DHT22;7457;50.960;6.830;2022-12-07T16:09:36;4.40;96.60
14733;DHT22;7457;50.960;6.830;2022-12-07T16:12:02;4.40;96.80
14733;DHT22;7457;50.960;6.830;2022-12-07T16:14:28;4.30;96.90
14733;DHT22;7457;50.960;6.830;2022-12-07T16:16:54;4.20;97.00
14733;DHT22;7457;50.960;6.830;2022-12-07T16:19:19;4.20;97.00
14733;DHT22;7457;50.960;6.830;2022-12-07T16:21:45;4.10;97.10
14733;DHT22;7457;50.960;6.830;2022-12-07T16:24:11;4.10;97.20
14733;DHT22;7457;50.960;6.830;2022-12-07T16:26:38;4.10;97.30
14733;DHT22;7457;50.960;6.830;2022-12-07T16:29:03;4.00;97.50
14733;DHT22;7457;50.960;6.830;2022-12-07T16:31:29;4.00;97.60
14733;DHT22;7457;50.960;6.830;2022-12-07T16:33:57;4.00;97.80
14733;DHT22;7457;50.960;6.830;2022-12-07T16:36:23;4.00;97.80
14733;DHT22;7457;50.960;6.830;2022-12-07T16:38:50;4.00;97.90
14733;DHT22;7457;50.960;6.830;2022-12-07T16:41:16;4.00;98.00
14733;DHT22;7457;50.960;6.830;2022-12-07T16:43:42;4.10;98.10
14733;DHT22;7457;50.960;6.830;2022-12-07T16:46:07;4.10;98.20
14733;DHT22;7457;50.960;6.830;2022-12-07T16:48:40;4.10;98.20
14733;DHT22;7457;50.960;6.830;2022-12-07T16:51:08;4.10;98.20
14733;DHT22;7457;50.960;6.830;2022-12-07T16:53:37;4.20;98.20
14733;DHT22;7457;50.960;6.830;2022-12-07T16:56:04;4.20;98.20
14733;DHT22;7457;50.960;6.830;2022-12-07T16:58:30;4.20;98.20
14733;DHT22;7457;50.960;6.830;2022-12-07T17:00:56;4.20;98.20
14733;DHT22;7457;50.960;6.830;2022-12-07T17:03:22;4.20;98.20
14733;DHT22;7457;50.960;6.830;2022-12-07T17:05:48;4.30;98.20
14733;DHT22;7457;50.960;6.830;2022-12-07T17:08:14;4.30;98.20
14733;DHT22;7457;50.960;6.830;2022-12-07T17:10:42;4.30;98.20
14733;DHT22;7457;50.960;6.830;2022-12-07T17:13:09;4.30;98.20
14733;DHT22;7457;50.960;6.830;2022-12-07T17:16:01;4.30;98.10
14733;DHT22;7457;50.960;6.830;2022-12-07T17:18:32;4.30;98.20
14733;DHT22;7457;50.960;6.830;2022-12-07T17:21:03;4.40;98.20
14733;DHT22;7457;50.960;6.830;2022-12-07T17:23:29;4.40;98.30
14733;DHT22;7457;50.960;6.830;2022-12-07T17:25:55;4.40;98.30
14733;DHT22;7457;50.960;6.830;2022-12-07T17:28:21;4.40;98.30
14733;DHT22;7457;50.960;6.830;2022-12-07T17:30:47;4.40;98.40
14733;DHT22;7457;50.960;6.830;2022-12-07T17:33:12;4.50;98.40
14733;DHT22;7457;50.960;6.830;2022-12-07T17:35:38;4.50;98.30
14733;DHT22;7457;50.960;6.830;2022-12-07T17:38:03;4.50;98.30
14733;DHT22;7457;50.960;6.830;2022-12-07T17:40:29;4.60;98.30
14733;DHT22;7457;50.960;6.830;2022-12-07T17:42:55;4.50;98.20
14733;DHT22;7457;50.960;6.830;2022-12-07T17:45:20;4.50;98.20
14733;DHT22;7457;50.960;6.830;2022-12-07T17:47:46;4.50;98.10
14733;DHT22;7457;50.960;6.830;2022-12-07T17:50:11;4.60;98.10
14733;DHT22;7457;50.960;6.830;2022-12-07T17:52:38;4.60;98.10
14733;DHT22;7457;50.960;6.830;2022-12-07T17:55:23;4.60;98.10
14733;DHT22;7457;50.960;6.830;2022-12-07T17:57:49;4.50;98.10
14733;DHT22;7457;50.960;6.830;2022-12-07T18:00:16;4.50;98.20
14733;DHT22;7457;50.960;6.830;2022-12-07T18:02:42;4.50;98.20
14733;DHT22;7457;50.960;6.830;2022-12-07T18:05:08;4.50;98.20
14733;DHT22;7457;50.960;6.830;2022-12-07T18:07:34;4.60;98.30